ボルドー の空港の天気 - METARとTAF

ボルドー・メリニャック空港 ( LFBD / BOD ) - フランス ボルドー
飛行場実況気象(Metar)
観測時間02/05 22:00 CET (02/05 21:00 UTC)
風向・風速北 4m/s
視程10km以上
天気現象
全天を覆う雲 雲底高度 1280m
気温8℃
湿度71%
気圧1038hPa
METARLFBD 052100Z AUTO 36007KT 350V070 9999 OVC042 08/03 Q1038 NOSIG
過去の天気等 Google飛行場航空写真 Wunderground天気予報

過去48時間のMETAR

飛行場予報(TAF)
発表時間: 2/05 18:00 CET (2/05 17:00 UTC)
予報対象時間: 5日19時 CET ~ 7日1時 CET
風向・風速北北東 5m/s
視程10km以上
なし
TAF LFBD 051700Z 0518/0624 03010KT CAVOK TX10/0614Z TN01/0607Z